sensor_id;sensor_type;location;lat;lon;timestamp;P1;durP1;ratioP1;P2;durP2;ratioP2
12838;SDS011;6486;51.034;5.262;2023-04-16T00:00:10;2.63;;;1.57;;
12838;SDS011;6486;51.034;5.262;2023-04-16T00:02:36;1.87;;;1.70;;
12838;SDS011;6486;51.034;5.262;2023-04-16T00:05:02;0.63;;;0.63;;
12838;SDS011;6486;51.034;5.262;2023-04-16T00:07:28;2.83;;;1.00;;
12838;SDS011;6486;51.034;5.262;2023-04-16T00:09:53;5.77;;;1.50;;
12838;SDS011;6486;51.034;5.262;2023-04-16T00:12:19;0.43;;;0.43;;
12838;SDS011;6486;51.034;5.262;2023-04-16T00:14:45;1.37;;;1.27;;
12838;SDS011;6486;51.034;5.262;2023-04-16T00:17:11;4.23;;;0.63;;
12838;SDS011;6486;51.034;5.262;2023-04-16T00:19:37;1.10;;;0.93;;
12838;SDS011;6486;51.034;5.262;2023-04-16T00:22:02;1.17;;;0.57;;
12838;SDS011;6486;51.034;5.262;2023-04-16T00:24:28;1.63;;;1.30;;
12838;SDS011;6486;51.034;5.262;2023-04-16T00:26:53;0.33;;;0.33;;
12838;SDS011;6486;51.034;5.262;2023-04-16T00:29:19;0.97;;;0.80;;
12838;SDS011;6486;51.034;5.262;2023-04-16T00:31:45;0.60;;;0.60;;
12838;SDS011;6486;51.034;5.262;2023-04-16T00:34:11;1.10;;;1.00;;
12838;SDS011;6486;51.034;5.262;2023-04-16T00:36:37;1.40;;;0.70;;
12838;SDS011;6486;51.034;5.262;2023-04-16T00:39:02;3.90;;;0.90;;
12838;SDS011;6486;51.034;5.262;2023-04-16T00:41:28;3.07;;;0.60;;
12838;SDS011;6486;51.034;5.262;2023-04-16T00:43:55;6.13;;;1.10;;
12838;SDS011;6486;51.034;5.262;2023-04-16T00:46:23;1.03;;;0.93;;
12838;SDS011;6486;51.034;5.262;2023-04-16T00:48:50;4.53;;;1.37;;
12838;SDS011;6486;51.034;5.262;2023-04-16T00:51:18;1.40;;;1.10;;
12838;SDS011;6486;51.034;5.262;2023-04-16T00:53:45;1.10;;;1.00;;
12838;SDS011;6486;51.034;5.262;2023-04-16T00:56:11;3.67;;;2.03;;
12838;SDS011;6486;51.034;5.262;2023-04-16T00:58:37;0.77;;;0.77;;
12838;SDS011;6486;51.034;5.262;2023-04-16T01:01:04;1.50;;;1.00;;
12838;SDS011;6486;51.034;5.262;2023-04-16T01:06:03;5.53;;;1.17;;
12838;SDS011;6486;51.034;5.262;2023-04-16T01:08:30;3.23;;;1.17;;
12838;SDS011;6486;51.034;5.262;2023-04-16T01:10:55;1.47;;;0.73;;
12838;SDS011;6486;51.034;5.262;2023-04-16T01:13:21;10.73;;;1.43;;
12838;SDS011;6486;51.034;5.262;2023-04-16T01:15:46;1.37;;;0.67;;
12838;SDS011;6486;51.034;5.262;2023-04-16T01:18:13;1.00;;;0.90;;
12838;SDS011;6486;51.034;5.262;2023-04-16T01:20:39;0.63;;;0.63;;
12838;SDS011;6486;51.034;5.262;2023-04-16T01:23:05;1.33;;;1.07;;
12838;SDS011;6486;51.034;5.262;2023-04-16T01:25:31;1.63;;;0.90;;
12838;SDS011;6486;51.034;5.262;2023-04-16T01:27:56;2.03;;;0.80;;
12838;SDS011;6486;51.034;5.262;2023-04-16T01:30:23;1.23;;;0.60;;
12838;SDS011;6486;51.034;5.262;2023-04-16T01:32:49;3.07;;;1.80;;
12838;SDS011;6486;51.034;5.262;2023-04-16T01:35:14;4.13;;;1.27;;
12838;SDS011;6486;51.034;5.262;2023-04-16T01:37:42;0.93;;;0.90;;
12838;SDS011;6486;51.034;5.262;2023-04-16T01:40:08;0.90;;;0.90;;
12838;SDS011;6486;51.034;5.262;2023-04-16T01:42:34;15.60;;;1.17;;
12838;SDS011;6486;51.034;5.262;2023-04-16T01:44:59;1.57;;;1.47;;
12838;SDS011;6486;51.034;5.262;2023-04-16T01:47:25;8.43;;;1.13;;
12838;SDS011;6486;51.034;5.262;2023-04-16T01:49:51;2.93;;;1.00;;
12838;SDS011;6486;51.034;5.262;2023-04-16T01:52:16;1.17;;;0.73;;
12838;SDS011;6486;51.034;5.262;2023-04-16T01:54:42;0.63;;;0.60;;
12838;SDS011;6486;51.034;5.262;2023-04-16T01:57:08;0.80;;;0.80;;
12838;SDS011;6486;51.034;5.262;2023-04-16T01:59:34;1.87;;;1.33;;
12838;SDS011;6486;51.034;5.262;2023-04-16T02:02:04;1.27;;;1.10;;
12838;SDS011;6486;51.034;5.262;2023-04-16T02:04:35;1.07;;;0.80;;
12838;SDS011;6486;51.034;5.262;2023-04-16T02:07:05;0.87;;;0.80;;
12838;SDS011;6486;51.034;5.262;2023-04-16T02:09:34;2.43;;;1.33;;
12838;SDS011;6486;51.034;5.262;2023-04-16T02:12:04;2.80;;;1.53;;
12838;SDS011;6486;51.034;5.262;2023-04-16T02:14:30;3.03;;;1.40;;
12838;SDS011;6486;51.034;5.262;2023-04-16T02:16:57;2.97;;;2.33;;
12838;SDS011;6486;51.034;5.262;2023-04-16T02:19:23;0.97;;;0.80;;
12838;SDS011;6486;51.034;5.262;2023-04-16T02:21:52;1.53;;;1.23;;
12838;SDS011;6486;51.034;5.262;2023-04-16T02:24:18;3.80;;;1.17;;
12838;SDS011;6486;51.034;5.262;2023-04-16T02:26:44;1.30;;;0.80;;
12838;SDS011;6486;51.034;5.262;2023-04-16T02:29:09;2.87;;;1.37;;
12838;SDS011;6486;51.034;5.262;2023-04-16T02:31:35;1.90;;;0.90;;
12838;SDS011;6486;51.034;5.262;2023-04-16T02:34:02;1.30;;;0.90;;
12838;SDS011;6486;51.034;5.262;2023-04-16T02:36:28;1.70;;;1.37;;
12838;SDS011;6486;51.034;5.262;2023-04-16T02:38:53;3.13;;;1.30;;
12838;SDS011;6486;51.034;5.262;2023-04-16T02:41:19;1.50;;;1.40;;
12838;SDS011;6486;51.034;5.262;2023-04-16T02:43:45;1.60;;;1.50;;
12838;SDS011;6486;51.034;5.262;2023-04-16T02:46:10;1.70;;;1.10;;
12838;SDS011;6486;51.034;5.262;2023-04-16T02:48:36;5.60;;;2.20;;
12838;SDS011;6486;51.034;5.262;2023-04-16T02:51:01;3.50;;;1.10;;
12838;SDS011;6486;51.034;5.262;2023-04-16T02:53:27;0.60;;;0.60;;
12838;SDS011;6486;51.034;5.262;2023-04-16T02:55:53;2.33;;;1.17;;
12838;SDS011;6486;51.034;5.262;2023-04-16T02:58:19;1.67;;;1.57;;
12838;SDS011;6486;51.034;5.262;2023-04-16T03:00:46;2.10;;;1.17;;
12838;SDS011;6486;51.034;5.262;2023-04-16T03:03:12;1.63;;;1.53;;
12838;SDS011;6486;51.034;5.262;2023-04-16T03:05:38;1.47;;;1.33;;
12838;SDS011;6486;51.034;5.262;2023-04-16T03:08:04;0.90;;;0.73;;
12838;SDS011;6486;51.034;5.262;2023-04-16T03:12:50;3.10;;;1.93;;
12838;SDS011;6486;51.034;5.262;2023-04-16T03:15:16;2.33;;;2.10;;
12838;SDS011;6486;51.034;5.262;2023-04-16T03:17:42;2.30;;;1.83;;
12838;SDS011;6486;51.034;5.262;2023-04-16T03:20:07;2.33;;;1.70;;
12838;SDS011;6486;51.034;5.262;2023-04-16T03:22:34;1.53;;;1.43;;
12838;SDS011;6486;51.034;5.262;2023-04-16T03:24:59;5.40;;;2.60;;
12838;SDS011;6486;51.034;5.262;2023-04-16T03:27:25;1.90;;;1.30;;
12838;SDS011;6486;51.034;5.262;2023-04-16T03:29:51;3.50;;;1.93;;
12838;SDS011;6486;51.034;5.262;2023-04-16T03:32:16;1.97;;;1.50;;
12838;SDS011;6486;51.034;5.262;2023-04-16T03:34:42;2.40;;;2.10;;
12838;SDS011;6486;51.034;5.262;2023-04-16T03:37:08;2.87;;;2.10;;
12838;SDS011;6486;51.034;5.262;2023-04-16T03:39:35;2.60;;;2.13;;
12838;SDS011;6486;51.034;5.262;2023-04-16T03:42:01;2.70;;;1.50;;
12838;SDS011;6486;51.034;5.262;2023-04-16T03:44:27;3.73;;;3.10;;
12838;SDS011;6486;51.034;5.262;2023-04-16T03:46:53;6.97;;;1.73;;
12838;SDS011;6486;51.034;5.262;2023-04-16T03:49:19;1.70;;;1.60;;
12838;SDS011;6486;51.034;5.262;2023-04-16T03:51:45;2.60;;;2.40;;
12838;SDS011;6486;51.034;5.262;2023-04-16T03:54:10;1.87;;;1.03;;
12838;SDS011;6486;51.034;5.262;2023-04-16T03:56:36;2.93;;;1.93;;
12838;SDS011;6486;51.034;5.262;2023-04-16T03:59:03;2.10;;;1.37;;
12838;SDS011;6486;51.034;5.262;2023-04-16T04:01:29;2.30;;;1.50;;
12838;SDS011;6486;51.034;5.262;2023-04-16T04:03:55;3.67;;;1.70;;
12838;SDS011;6486;51.034;5.262;2023-04-16T04:06:20;2.33;;;1.40;;
12838;SDS011;6486;51.034;5.262;2023-04-16T04:08:46;8.40;;;1.93;;
12838;SDS011;6486;51.034;5.262;2023-04-16T04:11:11;1.33;;;1.30;;
12838;SDS011;6486;51.034;5.262;2023-04-16T04:13:37;4.80;;;1.97;;
12838;SDS011;6486;51.034;5.262;2023-04-16T04:16:03;2.80;;;1.83;;
12838;SDS011;6486;51.034;5.262;2023-04-16T04:18:29;3.37;;;1.47;;
12838;SDS011;6486;51.034;5.262;2023-04-16T04:20:55;2.90;;;2.23;;
12838;SDS011;6486;51.034;5.262;2023-04-16T04:23:21;2.73;;;1.97;;
12838;SDS011;6486;51.034;5.262;2023-04-16T04:25:46;2.57;;;2.13;;
12838;SDS011;6486;51.034;5.262;2023-04-16T04:28:12;2.47;;;1.40;;
12838;SDS011;6486;51.034;5.262;2023-04-16T04:30:37;2.73;;;1.20;;
12838;SDS011;6486;51.034;5.262;2023-04-16T04:33:03;3.37;;;1.70;;
12838;SDS011;6486;51.034;5.262;2023-04-16T04:35:29;3.93;;;2.17;;
12838;SDS011;6486;51.034;5.262;2023-04-16T04:37:54;4.43;;;2.17;;
12838;SDS011;6486;51.034;5.262;2023-04-16T04:40:20;5.73;;;2.73;;
12838;SDS011;6486;51.034;5.262;2023-04-16T04:42:45;2.80;;;2.57;;
12838;SDS011;6486;51.034;5.262;2023-04-16T04:45:11;2.30;;;2.00;;
12838;SDS011;6486;51.034;5.262;2023-04-16T04:47:37;2.03;;;1.37;;
12838;SDS011;6486;51.034;5.262;2023-04-16T04:52:23;4.07;;;2.63;;
12838;SDS011;6486;51.034;5.262;2023-04-16T04:54:49;2.83;;;2.47;;
12838;SDS011;6486;51.034;5.262;2023-04-16T04:57:14;3.90;;;2.43;;
12838;SDS011;6486;51.034;5.262;2023-04-16T04:59:40;4.27;;;1.93;;
12838;SDS011;6486;51.034;5.262;2023-04-16T05:02:06;5.93;;;3.23;;
12838;SDS011;6486;51.034;5.262;2023-04-16T05:04:31;6.80;;;3.20;;
12838;SDS011;6486;51.034;5.262;2023-04-16T05:06:57;4.40;;;2.57;;
12838;SDS011;6486;51.034;5.262;2023-04-16T05:09:22;11.17;;;3.70;;
12838;SDS011;6486;51.034;5.262;2023-04-16T05:11:48;4.03;;;2.37;;
12838;SDS011;6486;51.034;5.262;2023-04-16T05:14:15;4.60;;;2.73;;
12838;SDS011;6486;51.034;5.262;2023-04-16T05:16:40;5.63;;;1.73;;
12838;SDS011;6486;51.034;5.262;2023-04-16T05:19:06;4.47;;;2.97;;
12838;SDS011;6486;51.034;5.262;2023-04-16T05:21:32;2.57;;;2.37;;
12838;SDS011;6486;51.034;5.262;2023-04-16T05:23:58;3.27;;;2.17;;
12838;SDS011;6486;51.034;5.262;2023-04-16T05:26:23;7.57;;;4.07;;
12838;SDS011;6486;51.034;5.262;2023-04-16T05:28:49;5.00;;;2.97;;
12838;SDS011;6486;51.034;5.262;2023-04-16T05:31:15;5.37;;;2.70;;
12838;SDS011;6486;51.034;5.262;2023-04-16T05:33:40;2.80;;;2.53;;
12838;SDS011;6486;51.034;5.262;2023-04-16T05:36:06;11.40;;;2.57;;
12838;SDS011;6486;51.034;5.262;2023-04-16T05:38:31;4.80;;;2.87;;
12838;SDS011;6486;51.034;5.262;2023-04-16T05:40:57;7.10;;;2.70;;
12838;SDS011;6486;51.034;5.262;2023-04-16T05:43:23;6.13;;;4.30;;
12838;SDS011;6486;51.034;5.262;2023-04-16T05:45:48;7.33;;;3.13;;
12838;SDS011;6486;51.034;5.262;2023-04-16T05:48:14;6.20;;;2.77;;
12838;SDS011;6486;51.034;5.262;2023-04-16T05:50:40;4.50;;;3.77;;
12838;SDS011;6486;51.034;5.262;2023-04-16T05:53:06;5.60;;;3.07;;
12838;SDS011;6486;51.034;5.262;2023-04-16T05:55:32;6.57;;;3.23;;
12838;SDS011;6486;51.034;5.262;2023-04-16T05:58:02;6.47;;;3.93;;
12838;SDS011;6486;51.034;5.262;2023-04-16T06:00:33;3.07;;;2.87;;
12838;SDS011;6486;51.034;5.262;2023-04-16T06:02:59;6.60;;;3.53;;
12838;SDS011;6486;51.034;5.262;2023-04-16T06:05:26;3.93;;;2.90;;
12838;SDS011;6486;51.034;5.262;2023-04-16T06:07:51;3.57;;;2.87;;
12838;SDS011;6486;51.034;5.262;2023-04-16T06:10:17;3.73;;;2.97;;
12838;SDS011;6486;51.034;5.262;2023-04-16T06:12:43;4.50;;;3.07;;
12838;SDS011;6486;51.034;5.262;2023-04-16T06:15:09;8.97;;;4.07;;
12838;SDS011;6486;51.034;5.262;2023-04-16T06:17:35;4.17;;;2.97;;
12838;SDS011;6486;51.034;5.262;2023-04-16T06:20:00;4.77;;;3.07;;
12838;SDS011;6486;51.034;5.262;2023-04-16T06:22:26;2.57;;;1.80;;
12838;SDS011;6486;51.034;5.262;2023-04-16T06:24:52;4.00;;;2.33;;
12838;SDS011;6486;51.034;5.262;2023-04-16T06:27:17;5.13;;;3.90;;
12838;SDS011;6486;51.034;5.262;2023-04-16T06:29:43;6.03;;;2.87;;
12838;SDS011;6486;51.034;5.262;2023-04-16T06:32:08;3.00;;;2.07;;
12838;SDS011;6486;51.034;5.262;2023-04-16T06:34:34;7.20;;;3.27;;
12838;SDS011;6486;51.034;5.262;2023-04-16T06:37:01;3.33;;;3.07;;
12838;SDS011;6486;51.034;5.262;2023-04-16T06:39:26;2.67;;;2.47;;
12838;SDS011;6486;51.034;5.262;2023-04-16T06:41:52;5.20;;;2.77;;
12838;SDS011;6486;51.034;5.262;2023-04-16T06:44:17;2.10;;;1.70;;
12838;SDS011;6486;51.034;5.262;2023-04-16T06:46:43;5.53;;;2.37;;
12838;SDS011;6486;51.034;5.262;2023-04-16T06:49:09;3.60;;;1.93;;
12838;SDS011;6486;51.034;5.262;2023-04-16T06:51:34;6.77;;;2.57;;
12838;SDS011;6486;51.034;5.262;2023-04-16T06:54:00;4.37;;;2.53;;
12838;SDS011;6486;51.034;5.262;2023-04-16T06:56:26;7.27;;;3.83;;
12838;SDS011;6486;51.034;5.262;2023-04-16T06:58:51;3.63;;;2.87;;
12838;SDS011;6486;51.034;5.262;2023-04-16T07:01:17;6.80;;;2.83;;
12838;SDS011;6486;51.034;5.262;2023-04-16T07:03:43;6.87;;;3.27;;
12838;SDS011;6486;51.034;5.262;2023-04-16T07:06:08;9.10;;;2.50;;
12838;SDS011;6486;51.034;5.262;2023-04-16T07:08:34;2.20;;;1.80;;
12838;SDS011;6486;51.034;5.262;2023-04-16T07:11:00;12.87;;;2.60;;
12838;SDS011;6486;51.034;5.262;2023-04-16T07:13:26;2.10;;;1.80;;
12838;SDS011;6486;51.034;5.262;2023-04-16T07:15:52;5.73;;;3.00;;
12838;SDS011;6486;51.034;5.262;2023-04-16T07:18:17;5.30;;;2.03;;
12838;SDS011;6486;51.034;5.262;2023-04-16T07:20:43;36.83;;;2.97;;
12838;SDS011;6486;51.034;5.262;2023-04-16T07:23:09;3.77;;;2.93;;
12838;SDS011;6486;51.034;5.262;2023-04-16T07:25:34;3.53;;;1.93;;
12838;SDS011;6486;51.034;5.262;2023-04-16T07:28:00;2.50;;;2.30;;
12838;SDS011;6486;51.034;5.262;2023-04-16T07:30:27;3.50;;;2.50;;
12838;SDS011;6486;51.034;5.262;2023-04-16T07:32:58;2.03;;;1.80;;
12838;SDS011;6486;51.034;5.262;2023-04-16T07:35:24;5.60;;;2.80;;
12838;SDS011;6486;51.034;5.262;2023-04-16T07:37:50;7.17;;;2.97;;
12838;SDS011;6486;51.034;5.262;2023-04-16T07:40:15;6.20;;;3.43;;
12838;SDS011;6486;51.034;5.262;2023-04-16T07:42:41;2.60;;;2.07;;
12838;SDS011;6486;51.034;5.262;2023-04-16T07:45:07;3.47;;;2.37;;
12838;SDS011;6486;51.034;5.262;2023-04-16T07:47:33;9.93;;;2.43;;
12838;SDS011;6486;51.034;5.262;2023-04-16T07:49:59;6.17;;;3.27;;
12838;SDS011;6486;51.034;5.262;2023-04-16T07:52:24;3.97;;;2.53;;
12838;SDS011;6486;51.034;5.262;2023-04-16T07:56:46;4.70;;;1.50;;
12838;SDS011;6486;51.034;5.262;2023-04-16T07:59:12;4.73;;;2.43;;
12838;SDS011;6486;51.034;5.262;2023-04-16T08:01:37;4.47;;;2.37;;
12838;SDS011;6486;51.034;5.262;2023-04-16T08:04:03;3.13;;;2.03;;
12838;SDS011;6486;51.034;5.262;2023-04-16T08:06:29;3.47;;;1.93;;
12838;SDS011;6486;51.034;5.262;2023-04-16T08:08:55;5.97;;;3.17;;
12838;SDS011;6486;51.034;5.262;2023-04-16T08:11:20;3.23;;;1.70;;
12838;SDS011;6486;51.034;5.262;2023-04-16T08:13:46;3.43;;;1.80;;
12838;SDS011;6486;51.034;5.262;2023-04-16T08:16:12;6.33;;;2.73;;
12838;SDS011;6486;51.034;5.262;2023-04-16T08:18:37;2.37;;;1.80;;
12838;SDS011;6486;51.034;5.262;2023-04-16T08:21:03;3.00;;;2.50;;
12838;SDS011;6486;51.034;5.262;2023-04-16T08:23:28;5.40;;;2.87;;
12838;SDS011;6486;51.034;5.262;2023-04-16T08:25:54;5.03;;;3.43;;
12838;SDS011;6486;51.034;5.262;2023-04-16T08:28:20;5.37;;;2.30;;
12838;SDS011;6486;51.034;5.262;2023-04-16T08:30:45;2.00;;;1.83;;
12838;SDS011;6486;51.034;5.262;2023-04-16T08:33:11;6.07;;;1.90;;
12838;SDS011;6486;51.034;5.262;2023-04-16T08:35:38;4.57;;;2.60;;
12838;SDS011;6486;51.034;5.262;2023-04-16T08:38:03;2.00;;;1.13;;
12838;SDS011;6486;51.034;5.262;2023-04-16T08:40:31;5.80;;;2.27;;
12838;SDS011;6486;51.034;5.262;2023-04-16T08:43:02;2.20;;;1.67;;
12838;SDS011;6486;51.034;5.262;2023-04-16T08:45:33;4.00;;;1.60;;
12838;SDS011;6486;51.034;5.262;2023-04-16T08:48:00;14.37;;;3.17;;
12838;SDS011;6486;51.034;5.262;2023-04-16T08:50:28;2.03;;;1.47;;
12838;SDS011;6486;51.034;5.262;2023-04-16T08:53:00;4.93;;;2.23;;
12838;SDS011;6486;51.034;5.262;2023-04-16T08:55:35;3.00;;;2.30;;
12838;SDS011;6486;51.034;5.262;2023-04-16T08:58:03;4.03;;;1.50;;
12838;SDS011;6486;51.034;5.262;2023-04-16T09:00:38;7.50;;;2.47;;
12838;SDS011;6486;51.034;5.262;2023-04-16T09:03:07;2.40;;;1.57;;
12838;SDS011;6486;51.034;5.262;2023-04-16T09:05:33;2.77;;;1.97;;
12838;SDS011;6486;51.034;5.262;2023-04-16T09:08:00;4.40;;;1.93;;
12838;SDS011;6486;51.034;5.262;2023-04-16T09:10:25;3.53;;;2.00;;
12838;SDS011;6486;51.034;5.262;2023-04-16T09:12:54;3.00;;;1.90;;
12838;SDS011;6486;51.034;5.262;2023-04-16T09:15:20;5.00;;;2.00;;
12838;SDS011;6486;51.034;5.262;2023-04-16T09:17:46;3.70;;;2.60;;
12838;SDS011;6486;51.034;5.262;2023-04-16T09:20:12;3.57;;;2.07;;
12838;SDS011;6486;51.034;5.262;2023-04-16T09:22:38;3.50;;;2.37;;
12838;SDS011;6486;51.034;5.262;2023-04-16T09:25:04;8.93;;;2.80;;
12838;SDS011;6486;51.034;5.262;2023-04-16T09:27:31;3.23;;;2.37;;
12838;SDS011;6486;51.034;5.262;2023-04-16T09:29:56;4.47;;;2.70;;
12838;SDS011;6486;51.034;5.262;2023-04-16T09:32:25;6.97;;;3.03;;
12838;SDS011;6486;51.034;5.262;2023-04-16T09:34:58;3.43;;;1.90;;
12838;SDS011;6486;51.034;5.262;2023-04-16T09:37:26;2.47;;;2.10;;
12838;SDS011;6486;51.034;5.262;2023-04-16T09:39:56;4.10;;;2.43;;
12838;SDS011;6486;51.034;5.262;2023-04-16T09:42:24;2.83;;;2.13;;
12838;SDS011;6486;51.034;5.262;2023-04-16T09:44:51;8.37;;;3.47;;
12838;SDS011;6486;51.034;5.262;2023-04-16T09:47:17;3.57;;;2.17;;
12838;SDS011;6486;51.034;5.262;2023-04-16T09:49:43;3.10;;;2.80;;
12838;SDS011;6486;51.034;5.262;2023-04-16T09:52:14;1.63;;;1.50;;
12838;SDS011;6486;51.034;5.262;2023-04-16T09:54:50;6.50;;;3.23;;
12838;SDS011;6486;51.034;5.262;2023-04-16T09:57:21;5.47;;;2.43;;
12838;SDS011;6486;51.034;5.262;2023-04-16T09:59:48;11.37;;;2.63;;
12838;SDS011;6486;51.034;5.262;2023-04-16T10:02:28;7.70;;;3.10;;
12838;SDS011;6486;51.034;5.262;2023-04-16T10:04:55;5.77;;;3.17;;
12838;SDS011;6486;51.034;5.262;2023-04-16T10:07:21;5.80;;;3.00;;
12838;SDS011;6486;51.034;5.262;2023-04-16T10:09:51;1.50;;;1.40;;
12838;SDS011;6486;51.034;5.262;2023-04-16T10:12:17;3.30;;;2.67;;
12838;SDS011;6486;51.034;5.262;2023-04-16T10:14:45;2.57;;;1.87;;
12838;SDS011;6486;51.034;5.262;2023-04-16T10:17:10;2.80;;;1.97;;
12838;SDS011;6486;51.034;5.262;2023-04-16T10:19:36;4.03;;;2.73;;
12838;SDS011;6486;51.034;5.262;2023-04-16T10:22:02;4.23;;;1.93;;
12838;SDS011;6486;51.034;5.262;2023-04-16T10:24:28;3.00;;;2.40;;
12838;SDS011;6486;51.034;5.262;2023-04-16T10:26:55;2.93;;;2.03;;
12838;SDS011;6486;51.034;5.262;2023-04-16T10:29:21;3.07;;;2.77;;
12838;SDS011;6486;51.034;5.262;2023-04-16T10:31:48;6.87;;;3.97;;
12838;SDS011;6486;51.034;5.262;2023-04-16T10:34:15;2.17;;;1.97;;
12838;SDS011;6486;51.034;5.262;2023-04-16T10:36:42;2.27;;;1.87;;
12838;SDS011;6486;51.034;5.262;2023-04-16T10:39:11;4.17;;;2.20;;
12838;SDS011;6486;51.034;5.262;2023-04-16T10:41:38;3.03;;;2.43;;
12838;SDS011;6486;51.034;5.262;2023-04-16T10:44:07;7.40;;;2.97;;
12838;SDS011;6486;51.034;5.262;2023-04-16T10:46:37;6.00;;;2.40;;
12838;SDS011;6486;51.034;5.262;2023-04-16T10:51:54;4.30;;;2.37;;
12838;SDS011;6486;51.034;5.262;2023-04-16T10:54:22;8.50;;;3.53;;
12838;SDS011;6486;51.034;5.262;2023-04-16T10:56:50;6.43;;;2.57;;
12838;SDS011;6486;51.034;5.262;2023-04-16T10:59:17;8.03;;;3.10;;
12838;SDS011;6486;51.034;5.262;2023-04-16T11:01:49;6.50;;;2.63;;
12838;SDS011;6486;51.034;5.262;2023-04-16T11:12:39;2.97;;;2.17;;
12838;SDS011;6486;51.034;5.262;2023-04-16T11:15:12;5.27;;;2.50;;
12838;SDS011;6486;51.034;5.262;2023-04-16T11:17:40;4.57;;;2.63;;
12838;SDS011;6486;51.034;5.262;2023-04-16T11:20:18;3.40;;;2.67;;
12838;SDS011;6486;51.034;5.262;2023-04-16T11:22:47;4.43;;;2.87;;
12838;SDS011;6486;51.034;5.262;2023-04-16T11:25:23;5.37;;;3.43;;
12838;SDS011;6486;51.034;5.262;2023-04-16T11:27:50;4.40;;;2.73;;
12838;SDS011;6486;51.034;5.262;2023-04-16T11:30:17;4.03;;;2.10;;
12838;SDS011;6486;51.034;5.262;2023-04-16T11:32:53;3.03;;;2.33;;
12838;SDS011;6486;51.034;5.262;2023-04-16T11:35:19;14.33;;;3.33;;
12838;SDS011;6486;51.034;5.262;2023-04-16T11:37:45;5.03;;;2.53;;
12838;SDS011;6486;51.034;5.262;2023-04-16T11:40:12;5.43;;;2.87;;
12838;SDS011;6486;51.034;5.262;2023-04-16T11:42:38;6.20;;;3.00;;
12838;SDS011;6486;51.034;5.262;2023-04-16T11:45:06;5.73;;;3.27;;
12838;SDS011;6486;51.034;5.262;2023-04-16T11:50:17;4.83;;;3.43;;
12838;SDS011;6486;51.034;5.262;2023-04-16T11:52:45;6.23;;;3.83;;
12838;SDS011;6486;51.034;5.262;2023-04-16T11:55:11;21.07;;;3.90;;
12838;SDS011;6486;51.034;5.262;2023-04-16T11:57:37;11.33;;;4.83;;
12838;SDS011;6486;51.034;5.262;2023-04-16T12:00:03;5.00;;;4.50;;
12838;SDS011;6486;51.034;5.262;2023-04-16T12:02:42;8.10;;;5.37;;
12838;SDS011;6486;51.034;5.262;2023-04-16T12:07:59;6.77;;;2.97;;
12838;SDS011;6486;51.034;5.262;2023-04-16T12:10:27;5.50;;;3.67;;
12838;SDS011;6486;51.034;5.262;2023-04-16T12:12:53;14.03;;;4.33;;
12838;SDS011;6486;51.034;5.262;2023-04-16T12:15:19;5.60;;;2.67;;
12838;SDS011;6486;51.034;5.262;2023-04-16T12:17:45;5.43;;;2.77;;
12838;SDS011;6486;51.034;5.262;2023-04-16T12:20:12;3.20;;;2.40;;
12838;SDS011;6486;51.034;5.262;2023-04-16T12:22:39;3.33;;;2.70;;
12838;SDS011;6486;51.034;5.262;2023-04-16T12:25:14;3.23;;;1.60;;
12838;SDS011;6486;51.034;5.262;2023-04-16T12:27:51;8.50;;;4.50;;
12838;SDS011;6486;51.034;5.262;2023-04-16T12:30:20;5.90;;;4.87;;
12838;SDS011;6486;51.034;5.262;2023-04-16T12:32:48;5.30;;;3.03;;
12838;SDS011;6486;51.034;5.262;2023-04-16T12:35:33;6.67;;;3.87;;
12838;SDS011;6486;51.034;5.262;2023-04-16T12:37:59;4.27;;;2.73;;
12838;SDS011;6486;51.034;5.262;2023-04-16T12:40:25;2.47;;;2.27;;
12838;SDS011;6486;51.034;5.262;2023-04-16T12:42:51;4.20;;;2.23;;
12838;SDS011;6486;51.034;5.262;2023-04-16T12:45:16;6.63;;;3.33;;
12838;SDS011;6486;51.034;5.262;2023-04-16T12:47:42;5.03;;;2.93;;
12838;SDS011;6486;51.034;5.262;2023-04-16T12:50:08;4.23;;;2.33;;
12838;SDS011;6486;51.034;5.262;2023-04-16T12:52:34;6.57;;;3.47;;
12838;SDS011;6486;51.034;5.262;2023-04-16T12:55:00;8.13;;;5.17;;
12838;SDS011;6486;51.034;5.262;2023-04-16T12:57:26;7.10;;;3.40;;
12838;SDS011;6486;51.034;5.262;2023-04-16T12:59:55;6.50;;;3.87;;
12838;SDS011;6486;51.034;5.262;2023-04-16T13:02:22;5.80;;;3.60;;
12838;SDS011;6486;51.034;5.262;2023-04-16T13:04:48;5.73;;;2.60;;
12838;SDS011;6486;51.034;5.262;2023-04-16T13:07:14;6.63;;;4.27;;
12838;SDS011;6486;51.034;5.262;2023-04-16T13:09:41;6.10;;;2.90;;
12838;SDS011;6486;51.034;5.262;2023-04-16T13:12:07;20.20;;;6.33;;
12838;SDS011;6486;51.034;5.262;2023-04-16T13:14:33;5.40;;;2.90;;
12838;SDS011;6486;51.034;5.262;2023-04-16T13:16:59;10.50;;;4.27;;
12838;SDS011;6486;51.034;5.262;2023-04-16T13:19:25;4.47;;;2.87;;
12838;SDS011;6486;51.034;5.262;2023-04-16T13:21:51;3.10;;;2.27;;
12838;SDS011;6486;51.034;5.262;2023-04-16T13:24:17;8.60;;;3.97;;
12838;SDS011;6486;51.034;5.262;2023-04-16T13:26:43;7.33;;;4.00;;
12838;SDS011;6486;51.034;5.262;2023-04-16T13:29:09;8.03;;;3.33;;
12838;SDS011;6486;51.034;5.262;2023-04-16T13:31:34;5.70;;;3.40;;
12838;SDS011;6486;51.034;5.262;2023-04-16T13:34:00;11.03;;;3.37;;
12838;SDS011;6486;51.034;5.262;2023-04-16T13:36:27;11.47;;;3.27;;
12838;SDS011;6486;51.034;5.262;2023-04-16T13:38:55;4.00;;;2.37;;
12838;SDS011;6486;51.034;5.262;2023-04-16T13:41:20;3.60;;;2.73;;
12838;SDS011;6486;51.034;5.262;2023-04-16T13:43:46;4.27;;;3.57;;
12838;SDS011;6486;51.034;5.262;2023-04-16T13:46:11;4.97;;;3.60;;
12838;SDS011;6486;51.034;5.262;2023-04-16T13:48:37;3.70;;;3.27;;
12838;SDS011;6486;51.034;5.262;2023-04-16T13:51:03;9.07;;;4.50;;
12838;SDS011;6486;51.034;5.262;2023-04-16T13:53:28;4.00;;;3.37;;
12838;SDS011;6486;51.034;5.262;2023-04-16T13:55:54;4.37;;;3.33;;
12838;SDS011;6486;51.034;5.262;2023-04-16T13:58:20;2.43;;;2.10;;
12838;SDS011;6486;51.034;5.262;2023-04-16T14:00:46;4.20;;;2.97;;
12838;SDS011;6486;51.034;5.262;2023-04-16T14:03:12;2.93;;;2.30;;
12838;SDS011;6486;51.034;5.262;2023-04-16T14:05:37;6.90;;;3.37;;
12838;SDS011;6486;51.034;5.262;2023-04-16T14:08:03;5.20;;;2.90;;
12838;SDS011;6486;51.034;5.262;2023-04-16T14:10:29;7.27;;;2.33;;
12838;SDS011;6486;51.034;5.262;2023-04-16T14:12:55;8.30;;;3.27;;
12838;SDS011;6486;51.034;5.262;2023-04-16T14:15:21;6.03;;;3.03;;
12838;SDS011;6486;51.034;5.262;2023-04-16T14:17:47;6.27;;;2.63;;
12838;SDS011;6486;51.034;5.262;2023-04-16T14:20:13;5.13;;;2.47;;
12838;SDS011;6486;51.034;5.262;2023-04-16T14:22:38;3.27;;;2.40;;
12838;SDS011;6486;51.034;5.262;2023-04-16T14:25:06;4.13;;;2.87;;
12838;SDS011;6486;51.034;5.262;2023-04-16T14:27:32;7.00;;;2.60;;
12838;SDS011;6486;51.034;5.262;2023-04-16T14:29:58;9.17;;;3.20;;
12838;SDS011;6486;51.034;5.262;2023-04-16T14:32:24;7.03;;;2.23;;
12838;SDS011;6486;51.034;5.262;2023-04-16T14:34:50;7.10;;;3.43;;
12838;SDS011;6486;51.034;5.262;2023-04-16T14:37:16;4.97;;;2.50;;
12838;SDS011;6486;51.034;5.262;2023-04-16T14:39:42;4.50;;;2.93;;
12838;SDS011;6486;51.034;5.262;2023-04-16T14:42:08;6.00;;;2.03;;
12838;SDS011;6486;51.034;5.262;2023-04-16T14:44:34;6.23;;;3.97;;
12838;SDS011;6486;51.034;5.262;2023-04-16T14:47:00;6.40;;;3.27;;
12838;SDS011;6486;51.034;5.262;2023-04-16T14:49:26;7.50;;;3.80;;
12838;SDS011;6486;51.034;5.262;2023-04-16T14:51:51;1.97;;;1.67;;
12838;SDS011;6486;51.034;5.262;2023-04-16T14:54:17;3.53;;;2.17;;
12838;SDS011;6486;51.034;5.262;2023-04-16T14:56:44;4.93;;;2.67;;
12838;SDS011;6486;51.034;5.262;2023-04-16T14:59:10;3.80;;;2.83;;
12838;SDS011;6486;51.034;5.262;2023-04-16T15:01:36;1.87;;;1.70;;
12838;SDS011;6486;51.034;5.262;2023-04-16T15:04:05;4.77;;;1.97;;
12838;SDS011;6486;51.034;5.262;2023-04-16T15:06:32;2.30;;;2.17;;
12838;SDS011;6486;51.034;5.262;2023-04-16T15:08:57;6.30;;;2.17;;
12838;SDS011;6486;51.034;5.262;2023-04-16T15:11:23;1.60;;;1.50;;
12838;SDS011;6486;51.034;5.262;2023-04-16T15:13:49;3.40;;;2.13;;
12838;SDS011;6486;51.034;5.262;2023-04-16T15:16:15;3.17;;;1.33;;
12838;SDS011;6486;51.034;5.262;2023-04-16T15:18:41;2.47;;;2.27;;
12838;SDS011;6486;51.034;5.262;2023-04-16T15:21:07;5.67;;;2.43;;